^^
Grace C. Lehan Memorial Weather Station Historical Data
Daily Summary for September 13, 2021 Units:  English    Metric   Both
Daily Weekly Monthly Yearly
  High: Low: Average:
Temperature: 82.3 °F 66.4 °F 75 °F
Dew Point: 68.2 °F 56.6 °F 62.7 °F
Humidity: 85.3% 43.3% 67%
Wind Speed: 7mph 0mph 1.3mph
Wind Gust: 17mph - -
Wind- - WNW
Pressure: 30.03 in 29.86 in -
Precipitation: 0.00 in    
 
 
Tabular Data for September 13, 2021
Time Temperature Dew Point Pressure Wind Wind Speed Wind Gust Humidity Rainfall Rate (Hourly) solar
00:09 73.8 °F 67.6 °F 29.94 in Calm     81% 0.00 in 0 W/m2
00:14 73.8 °F 67.6 °F 29.93 in Calm     81% 0.00 in 0 W/m2
00:19 73.7 °F 67.5 °F 29.93 in Calm     81% 0.00 in 0 W/m2
00:24 73.6 °F 67.5 °F 29.93 in Calm   1 mph 81% 0.00 in 0 W/m2
00:29 73.6 °F 67.6 °F 29.93 in Calm   1 mph 81.6% 0.00 in 0 W/m2
00:34 73.5 °F 67.7 °F 29.93 in Calm   1 mph 82% 0.00 in 0 W/m2
00:39 73.4 °F 67.6 °F 29.92 in Calm   2 mph 82% 0.00 in 0 W/m2
00:44 73.4 °F 67.6 °F 29.92 in Calm   2 mph 82% 0.00 in 0 W/m2
00:49 73.4 °F 67.6 °F 29.92 in Calm   2 mph 82% 0.00 in 0 W/m2
00:54 73.4 °F 67.6 °F 29.92 in Calm   2 mph 82% 0.00 in 0 W/m2
00:59 73.4 °F 67.6 °F 29.92 in Calm   2 mph 82% 0.00 in 0 W/m2
01:04 73.3 °F 67.5 °F 29.92 in Calm   3 mph 82% 0.00 in 0 W/m2
01:09 73.3 °F 67.5 °F 29.92 in Calm   3 mph 82% 0.00 in 0 W/m2
01:14 73.3 °F 67.5 °F 29.92 in Calm   3 mph 82% 0.00 in 0 W/m2
01:19 73.3 °F 67.5 °F 29.91 in Calm   3 mph 82% 0.00 in 0 W/m2
01:24 73.3 °F 67.5 °F 29.91 in WSW 0.1 mph 3 mph 82% 0.00 in 0 W/m2
01:29 73.3 °F 67.5 °F 29.91 in Calm   3 mph 82% 0.00 in 0 W/m2
01:34 73.3 °F 67.5 °F 29.92 in Calm   3 mph 82% 0.00 in 0 W/m2
01:39 73.3 °F 67.5 °F 29.92 in Calm   1 mph 82% 0.00 in 0 W/m2
01:44 73.2 °F 67.4 °F 29.92 in WSW 0.1 mph 3 mph 82% 0.00 in 0 W/m2
01:49 73.2 °F 67.7 °F 29.91 in WSW 0.1 mph 3 mph 82.9% 0.00 in 0 W/m2
01:54 73.2 °F 67.7 °F 29.91 in WSW 0.1 mph 3 mph 83% 0.00 in 0 W/m2
01:59 73.2 °F 67.7 °F 29.91 in WSW 0.1 mph 3 mph 83% 0.00 in 0 W/m2
02:04 73.3 °F 67.8 °F 29.91 in WSW 0.1 mph 3 mph 83% 0.00 in 0 W/m2
02:09 73.3 °F 67.8 °F 29.91 in Calm   2 mph 83% 0.00 in 0 W/m2
02:14 73.2 °F 67.7 °F 29.91 in Calm   2 mph 83% 0.00 in 0 W/m2
02:19 73.2 °F 67.7 °F 29.91 in Calm   2 mph 83% 0.00 in 0 W/m2
02:24 73.1 °F 67.7 °F 29.91 in Calm   2 mph 83% 0.00 in 0 W/m2
02:29 73.1 °F 67.6 °F 29.91 in Calm   2 mph 83% 0.00 in 0 W/m2
02:34 73 °F 67.5 °F 29.90 in Calm   2 mph 83% 0.00 in 0 W/m2
02:39 73 °F 67.5 °F 29.90 in Calm   1 mph 83% 0.00 in 0 W/m2
02:44 72.9 °F 67.4 °F 29.90 in Calm   1 mph 83% 0.00 in 0 W/m2
02:49 72.8 °F 67.3 °F 29.90 in Calm   1 mph 83% 0.00 in 0 W/m2
02:54 72.8 °F 67.3 °F 29.90 in Calm   1 mph 83% 0.00 in 0 W/m2
02:59 72.6 °F 67.3 °F 29.90 in Calm   1 mph 83.4% 0.00 in 0 W/m2
03:04 72.5 °F 67.4 °F 29.90 in Calm   1 mph 84% 0.00 in 0 W/m2
03:09 72.4 °F 67.3 °F 29.90 in Calm     84% 0.00 in 0 W/m2
03:14 72.3 °F 67.2 °F 29.91 in Calm     84% 0.00 in 0 W/m2
03:19 72.2 °F 67.3 °F 29.91 in WSW 1.1 mph 6 mph 84.5% 0.00 in 0 W/m2
03:24 72.2 °F 67.4 °F 29.91 in WSW 0.2 mph 6 mph 84.9% 0.00 in 0 W/m2
03:29 72.2 °F 67.4 °F 29.91 in WSW 1.2 mph 7 mph 85% 0.00 in 0 W/m2
03:34 72.2 °F 67.4 °F 29.91 in WSW 0.6 mph 7 mph 85% 0.00 in 0 W/m2
03:39 72.2 °F 67.4 °F 29.90 in WSW 0.8 mph 9 mph 85% 0.00 in 0 W/m2
03:44 72.2 °F 67.4 °F 29.90 in WSW 0.4 mph 9 mph 85% 0.00 in 0 W/m2
03:49 72.3 °F 67.5 °F 29.90 in West 0.7 mph 9 mph 85% 0.00 in 0 W/m2
03:54 72.4 °F 67.6 °F 29.89 in WSW 2.6 mph 12 mph 85% 0.00 in 0 W/m2
03:59 72.5 °F 67.7 °F 29.89 in WSW 2.4 mph 12 mph 85% 0.00 in 0 W/m2
04:00 72.6 °F 67.8 °F 29.89 in WNW 1 mph 12 mph 85% 0.00 in 0 W/m2
04:09 73 °F 67.9 °F 29.89 in West 3.8 mph 13 mph 84% 0.00 in 0 W/m2
04:14 73.2 °F 67.8 °F 29.89 in WSW 2.9 mph 13 mph 83.2% 0.00 in 0 W/m2
04:19 73.4 °F 67.9 °F 29.89 in SW 2.6 mph 13 mph 83% 0.00 in 0 W/m2
04:24 73.5 °F 68 °F 29.89 in West 3.2 mph 13 mph 82.9% 0.00 in 0 W/m2
04:29 73.6 °F 67.7 °F 29.89 in WSW 3.3 mph 13 mph 82% 0.00 in 0 W/m2
04:34 73.6 °F 67.8 °F 29.89 in WSW 4.8 mph 14 mph 82% 0.00 in 0 W/m2
04:39 73.6 °F 67.8 °F 29.89 in WSW 2.1 mph 14 mph 82% 0.00 in 0 W/m2
04:44 73.7 °F 67.8 °F 29.88 in WSW 2 mph 14 mph 82% 0.00 in 0 W/m2
04:49 73.6 °F 67.8 °F 29.86 in West 0.3 mph 14 mph 82% 0.00 in 0 W/m2
04:54 73.6 °F 67.8 °F 29.88 in West 0.5 mph 14 mph 82% 0.00 in 0 W/m2
04:59 73.5 °F 67.7 °F 29.88 in WSW 1.4 mph 14 mph 82% 0.00 in 0 W/m2
05:04 73.5 °F 67.7 °F 29.88 in WSW 2.5 mph 14 mph 82% 0.00 in 0 W/m2
05:09 73.4 °F 67.6 °F 29.87 in WSW 1.9 mph 10 mph 82% 0.00 in 0 W/m2
05:14 73.4 °F 67.6 °F 29.87 in WSW 1.6 mph 10 mph 82% 0.00 in 0 W/m2
05:19 73.4 °F 67.6 °F 29.87 in West 1 mph 10 mph 82.3% 0.00 in 0 W/m2
05:24 73.3 °F 67.8 °F 29.88 in West 1.3 mph 10 mph 83% 0.00 in 0 W/m2
05:29 73.2 °F 67.7 °F 29.88 in WSW 0.4 mph 10 mph 83% 0.00 in 0 W/m2
05:34 73.1 °F 67.7 °F 29.88 in WSW 0.4 mph 10 mph 83% 0.00 in 0 W/m2
05:39 73 °F 67.6 °F 29.88 in WSW 0.3 mph 4 mph 83% 0.00 in 0 W/m2
05:44 72.9 °F 67.5 °F 29.88 in WSW 0.3 mph 4 mph 83% 0.00 in 0 W/m2
05:49 72.8 °F 67.4 °F 29.87 in WSW 0.1 mph 4 mph 83% 0.00 in 0 W/m2
05:54 72.8 °F 67.5 °F 29.87 in Calm   4 mph 83.5% 0.00 in 0 W/m2
05:59 72.7 °F 67.6 °F 29.86 in Calm   4 mph 84% 0.00 in 0 W/m2
06:04 72.6 °F 67.5 °F 29.87 in Calm   4 mph 84% 0.00 in 0 W/m2
06:09 72.5 °F 67.4 °F 29.88 in Calm     84% 0.00 in 0 W/m2
06:14 72.4 °F 67.4 °F 29.89 in West 0.6 mph 5 mph 84.4% 0.00 in 0 W/m2
06:19 72.2 °F 67.5 °F 29.89 in West 0.6 mph 6 mph 85% 0.00 in 0 W/m2
06:24 72.2 °F 67.4 °F 29.90 in West 1.1 mph 6 mph 85% 0.00 in 0 W/m2
06:29 72.2 °F 67.4 °F 29.90 in West 2.2 mph 7 mph 85% 0.00 in 0 W/m2
06:34 72.1 °F 67.4 °F 29.90 in WSW 2.5 mph 9 mph 85% 0.00 in 0 W/m2
06:39 72.1 °F 67.3 °F 29.91 in West 2.4 mph 9 mph 85% 0.00 in 0 W/m2
06:44 72.1 °F 67.4 °F 29.91 in WSW 2.4 mph 9 mph 85% 0.00 in 0 W/m2
06:48 72.1 °F 67.4 °F 29.91 in WSW 2.2 mph 10 mph 85% 0.00 in 5 W/m2
06:54 72.2 °F 67.4 °F 29.92 in West 0.7 mph 10 mph 85% 0.00 in 12 W/m2
06:59 72.2 °F 67.5 °F 29.92 in West 0.9 mph 10 mph 85% 0.00 in 19 W/m2
07:04 72.3 °F 67.5 °F 29.92 in West 0.8 mph 10 mph 85% 0.00 in 26 W/m2
07:09 72.3 °F 67.6 °F 29.92 in Calm   5 mph 85.2% 0.00 in 28 W/m2
07:14 72.4 °F 67.8 °F 29.92 in Calm   5 mph 85.3% 0.00 in 26 W/m2
07:19 72.5 °F 67.7 °F 29.93 in Calm   5 mph 85% 0.00 in 30 W/m2
07:24 72.5 °F 67.8 °F 29.93 in WNW 1.1 mph 6 mph 85% 0.00 in 37 W/m2
07:29 72.7 °F 67.9 °F 29.93 in WNW 1.4 mph 7 mph 85% 0.00 in 42 W/m2
07:34 72.8 °F 68 °F 29.93 in West 2.3 mph 9 mph 84.9% 0.00 in 47 W/m2
07:39 73 °F 67.9 °F 29.94 in WNW 2.8 mph 10 mph 84% 0.00 in 47 W/m2
07:44 73.2 °F 68.1 °F 29.95 in WNW 1.5 mph 10 mph 84% 0.00 in 47 W/m2
07:49 73.3 °F 68.2 °F 29.95 in WNW 4.8 mph 13 mph 83.9% 0.00 in 44 W/m2
07:54 73.3 °F 67.8 °F 29.95 in NW 4.4 mph 13 mph 82.9% 0.00 in 49 W/m2
07:59 73.2 °F 67.2 °F 29.95 in NW 4.5 mph 13 mph 81.4% 0.00 in 70 W/m2
08:00 73.2 °F 67 °F 29.95 in NNW 7 mph 13 mph 81% 0.00 in 70 W/m2
08:09 73.1 °F 66 °F 29.95 in NW 4.4 mph 17 mph 78.6% 0.00 in 98 W/m2
08:14 73 °F 66 °F 29.95 in NW 2.9 mph 17 mph 78.7% 0.00 in 113 W/m2
08:19 73 °F 65.7 °F 29.94 in NW 2.6 mph 17 mph 78% 0.00 in 118 W/m2
08:24 73 °F 64.7 °F 29.94 in WNW 6 mph 17 mph 75.2% 0.00 in 125 W/m2
08:29 73 °F 62.9 °F 29.94 in WNW 4.5 mph 17 mph 70.7% 0.00 in 125 W/m2
08:34 73 °F 61.5 °F 29.94 in NW 4.1 mph 17 mph 67.3% 0.00 in 174 W/m2
08:39 73 °F 61.2 °F 29.95 in NW 2 mph 11 mph 66.5% 0.00 in 258 W/m2
08:44 73.2 °F 61.6 °F 29.94 in WNW 3.5 mph 11 mph 67% 0.00 in 232 W/m2
08:49 73.4 °F 61.4 °F 29.94 in WNW 4.5 mph 12 mph 66.1% 0.00 in 227 W/m2
08:54 73.5 °F 61.2 °F 29.95 in NW 1.5 mph 12 mph 65.4% 0.00 in 279 W/m2
08:59 73.7 °F 61.3 °F 29.95 in NW 1.1 mph 12 mph 65.3% 0.00 in 343 W/m2
09:04 74.1 °F 61.3 °F 29.95 in Calm   12 mph 64.4% 0.00 in 438 W/m2
09:09 74.7 °F 61.3 °F 29.96 in NW 0.8 mph 4 mph 63.1% 0.00 in 408 W/m2
09:14 75.3 °F 62 °F 29.96 in Calm   4 mph 63.5% 0.00 in 392 W/m2
09:19 75.8 °F 62.4 °F 29.97 in NW 0.9 mph 5 mph 63.2% 0.00 in 392 W/m2
09:24 76.2 °F 60.4 °F 29.96 in NNW 0.2 mph 6 mph 58.1% 0.00 in 483 W/m2
09:29 76.6 °F 61.7 °F 29.97 in Calm   6 mph 59.9% 0.00 in 483 W/m2
09:34 77.2 °F 61.3 °F 29.97 in North 0.6 mph 6 mph 58.2% 0.00 in 527 W/m2
09:39 77.7 °F 60.2 °F 29.97 in Calm   3 mph 54.8% 0.00 in 548 W/m2
09:44 78.3 °F 60.7 °F 29.97 in Calm   3 mph 54.8% 0.00 in 554 W/m2
09:49 78.8 °F 60.8 °F 29.97 in NE 0.1 mph 3 mph 54.1% 0.00 in 503 W/m2
09:54 79.3 °F 61 °F 29.97 in NE 0.8 mph 6 mph 53.6% 0.00 in 524 W/m2
09:59 79.6 °F 60.3 °F 29.97 in West 1.2 mph 10 mph 51.8% 0.00 in 496 W/m2
10:04 79.6 °F 59.8 °F 29.98 in WNW 0.7 mph 10 mph 50.8% 0.00 in 462 W/m2
10:09 79.7 °F 60.7 °F 29.98 in NW 0.2 mph 4 mph 52.4% 0.00 in 508 W/m2
10:14 79.8 °F 60.4 °F 29.98 in NNW 1.1 mph 6 mph 51.4% 0.00 in 555 W/m2
10:19 80 °F 59.4 °F 29.98 in NNW 2.6 mph 10 mph 49.5% 0.00 in 636 W/m2
10:24 79.8 °F 59.4 °F 29.98 in WNW 1.6 mph 11 mph 49.8% 0.00 in 608 W/m2
10:29 79.7 °F 59.9 °F 29.98 in NW 1.9 mph 11 mph 50.9% 0.00 in 649 W/m2
10:34 79.7 °F 59.9 °F 29.98 in WNW 2.1 mph 11 mph 50.9% 0.00 in 666 W/m2
10:39 79.8 °F 59.7 °F 29.98 in WNW 2.1 mph 8 mph 50.3% 0.00 in 671 W/m2
10:44 80 °F 60.5 °F 29.99 in NW 1.6 mph 8 mph 51.4% 0.00 in 671 W/m2
10:49 80.4 °F 60.8 °F 29.99 in NNW 3.1 mph 10 mph 51.4% 0.00 in 684 W/m2
10:54 80.5 °F 60.5 °F 29.99 in NW 2.2 mph 10 mph 50.5% 0.00 in 693 W/m2
10:59 80.7 °F 60.3 °F 29.99 in WNW 4.1 mph 13 mph 50% 0.00 in 703 W/m2
11:04 80.6 °F 60.1 °F 29.99 in NW 5.7 mph 14 mph 49.7% 0.00 in 712 W/m2
11:09 80.3 °F 59.8 °F 29.99 in WNW 4.5 mph 14 mph 49.7% 0.00 in 721 W/m2
11:14 80.1 °F 60.5 °F 29.98 in NW 3.5 mph 14 mph 51.3% 0.00 in 724 W/m2
11:19 80.1 °F 60.1 °F 29.99 in NW 3.4 mph 14 mph 50.4% 0.00 in 738 W/m2
11:24 80.2 °F 60.5 °F 29.99 in WNW 5 mph 14 mph 51.2% 0.00 in 745 W/m2
11:29 80.4 °F 61 °F 29.99 in WNW 3.5 mph 14 mph 51.7% 0.00 in 754 W/m2
11:34 80.4 °F 60.3 °F 29.98 in NW 4.1 mph 14 mph 50.3% 0.00 in 756 W/m2
11:39 80.4 °F 61.4 °F 29.98 in West 2.2 mph 11 mph 52.4% 0.00 in 429 W/m2
11:44 80.6 °F 61.6 °F 29.98 in West 2.2 mph 11 mph 52.4% 0.00 in 438 W/m2
11:49 80.6 °F 61.2 °F 29.98 in West 2.5 mph 12 mph 51.7% 0.00 in 438 W/m2
11:54 80.3 °F 61 °F 29.98 in WNW 2.4 mph 12 mph 51.7% 0.00 in 146 W/m2
11:59 80.1 °F 60.4 °F 29.98 in WNW 1.1 mph 12 mph 51.1% 0.00 in 84 W/m2
12:00 80.1 °F 62 °F 29.98 in Calm   12 mph 54% 0.00 in 69 W/m2
12:09 80 °F 61.4 °F 29.97 in WNW 1.5 mph 7 mph 53% 0.00 in 69 W/m2
12:14 79.8 °F 60.6 °F 29.97 in NW 3.5 mph 13 mph 51.9% 0.00 in 93 W/m2
12:19 79.6 °F 59.2 °F 29.96 in WNW 7 mph 15 mph 49.8% 0.00 in 93 W/m2
12:24 79.2 °F 58.8 °F 29.96 in West 3.6 mph 15 mph 49.7% 0.00 in 83 W/m2
12:29 79.1 °F 59 °F 29.96 in WNW 3.2 mph 15 mph 50.2% 0.00 in 162 W/m2
12:34 79.1 °F 58.9 °F 29.96 in WNW 3.7 mph 15 mph 50.1% 0.00 in 84 W/m2
12:39 79.2 °F 59.2 °F 29.96 in West 1.7 mph 14 mph 50.4% 0.00 in 163 W/m2
12:44 79.4 °F 59.6 °F 29.96 in NW 3 mph 14 mph 50.7% 0.00 in 156 W/m2
12:49 79.6 °F 58.7 °F 29.96 in WNW 2.6 mph 14 mph 48.9% 0.00 in 83 W/m2
12:54 79.7 °F 59 °F 29.96 in NW 3.3 mph 14 mph 49.2% 0.00 in 167 W/m2
12:59 79.8 °F 59.4 °F 29.96 in NNW 1.4 mph 14 mph 49.8% 0.00 in 167 W/m2
13:04 79.9 °F 59.5 °F 29.96 in NW 3.3 mph 14 mph 49.7% 0.00 in 121 W/m2
13:09 80.1 °F 60.4 °F 29.96 in WNW 0.4 mph 9 mph 51.1% 0.00 in 144 W/m2
13:14 80.2 °F 61.2 °F 29.96 in WNW 1.6 mph 9 mph 52.3% 0.00 in 114 W/m2
13:19 80.4 °F 60.9 °F 29.96 in WNW 2.2 mph 9 mph 51.6% 0.00 in 98 W/m2
13:24 80.4 °F 60.7 °F 29.96 in West 1.7 mph 10 mph 51.1% 0.00 in 67 W/m2
13:29 80.5 °F 60.9 °F 29.96 in West 3.6 mph 10 mph 51.3% 0.00 in 144 W/m2
13:34 80.5 °F 60 °F 29.96 in West 3.4 mph 11 mph 49.7% 0.00 in 171 W/m2
13:39 80.5 °F 58.9 °F 29.96 in NW 4.4 mph 13 mph 47.8% 0.00 in 81 W/m2
13:44 80.3 °F 56.9 °F 29.96 in WNW 5.2 mph 15 mph 44.7% 0.00 in 54 W/m2
13:49 80.1 °F 57.1 °F 29.96 in NNW 4.1 mph 15 mph 45.3% 0.00 in 53 W/m2
13:54 79.9 °F 57.2 °F 29.96 in NW 3.8 mph 15 mph 45.8% 0.00 in 54 W/m2
13:59 79.8 °F 57.1 °F 29.96 in NW 2.6 mph 15 mph 45.9% 0.00 in 58 W/m2
14:04 79.7 °F 57.7 °F 29.96 in NW 1.5 mph 15 mph 47% 0.00 in 62 W/m2
14:09 79.9 °F 57.7 °F 29.96 in WNW 3.8 mph 13 mph 46.8% 0.00 in 62 W/m2
14:14 79.9 °F 57.6 °F 29.96 in NW 2.9 mph 13 mph 46.4% 0.00 in 128 W/m2
14:19 80.1 °F 58.4 °F 29.96 in WNW 2 mph 13 mph 47.5% 0.00 in 230 W/m2
14:24 80.4 °F 57.4 °F 29.96 in WNW 3.6 mph 15 mph 45.5% 0.00 in 761 W/m2
14:29 80.9 °F 57.9 °F 29.96 in NW 5 mph 16 mph 45.5% 0.00 in 758 W/m2
14:34 80.9 °F 56.6 °F 29.96 in NW 5.5 mph 17 mph 43.3% 0.00 in 744 W/m2
14:39 80.7 °F 57.5 °F 29.96 in WNW 2.4 mph 17 mph 45.2% 0.00 in 742 W/m2
14:44 80.7 °F 57 °F 29.96 in WNW 4.3 mph 17 mph 44.3% 0.00 in 742 W/m2
14:49 80.9 °F 58 °F 29.95 in WNW 3.6 mph 17 mph 45.8% 0.00 in 740 W/m2
14:54 81 °F 58.1 °F 29.95 in NW 3 mph 17 mph 45.6% 0.00 in 615 W/m2
14:59 81 °F 58.7 °F 29.95 in NW 2.2 mph 17 mph 46.6% 0.00 in 691 W/m2
15:04 81.1 °F 59.1 °F 29.95 in WNW 3.3 mph 17 mph 47.2% 0.00 in 691 W/m2
15:09 81.2 °F 59.8 °F 29.94 in NW 1.6 mph 13 mph 48.3% 0.00 in 677 W/m2
15:14 81.3 °F 58.6 °F 29.95 in WNW 4.6 mph 13 mph 46.1% 0.00 in 652 W/m2
15:19 81.4 °F 58 °F 29.95 in WNW 4.7 mph 14 mph 45% 0.00 in 647 W/m2
15:24 81.4 °F 58 °F 29.95 in NW 3 mph 14 mph 44.9% 0.00 in 629 W/m2
15:29 81.5 °F 59.1 °F 29.95 in NW 2.3 mph 14 mph 46.5% 0.00 in 619 W/m2
15:34 81.8 °F 59.2 °F 29.95 in NW 1.7 mph 14 mph 46.3% 0.00 in 601 W/m2
15:39 82.1 °F 59.7 °F 29.95 in WNW 2.8 mph 7 mph 46.7% 0.00 in 584 W/m2
15:44 82.3 °F 59.8 °F 29.94 in WNW 2.6 mph 8 mph 46.6% 0.00 in 568 W/m2
15:48 82.2 °F 60.1 °F 29.94 in WNW 3 mph 9 mph 47.2% 0.00 in 550 W/m2
15:54 81.9 °F 60.3 °F 29.94 in WNW 1.4 mph 9 mph 48.1% 0.00 in 538 W/m2
15:59 81.6 °F 60.1 °F 29.93 in WNW 1.2 mph 9 mph 48.2% 0.00 in 466 W/m2
16:09 80.7 °F 59.2 °F 29.94 in NNW 0.7 mph 4 mph 48% 0.00 in 54 W/m2
16:14 80.6 °F 59.7 °F 29.94 in NW 1.9 mph 6 mph 49.1% 0.00 in 54 W/m2
16:19 80.5 °F 59.6 °F 29.94 in West 1.6 mph 11 mph 49.1% 0.00 in 53 W/m2
16:24 80.4 °F 59.5 °F 29.94 in WNW 1.3 mph 11 mph 49% 0.00 in 53 W/m2
16:29 80.2 °F 59.8 °F 29.95 in WNW 0.2 mph 11 mph 49.8% 0.00 in 72 W/m2
16:34 80 °F 59.9 °F 29.95 in WNW 1.3 mph 11 mph 50.4% 0.00 in 81 W/m2
16:39 79.8 °F 59.6 °F 29.95 in WNW 0.1 mph 5 mph 50.1% 0.00 in 107 W/m2
16:44 79.7 °F 60.1 °F 29.95 in WNW 1.4 mph 5 mph 51.1% 0.00 in 118 W/m2
16:49 79.7 °F 60.7 °F 29.95 in North 0.8 mph 5 mph 52.3% 0.00 in 116 W/m2
16:54 79.7 °F 60.4 °F 29.95 in NNW 0.6 mph 5 mph 51.8% 0.00 in 102 W/m2
16:59 79.8 °F 60.4 °F 29.95 in NNW 1 mph 5 mph 51.7% 0.00 in 54 W/m2
17:04 79.8 °F 60.1 °F 29.95 in NW 1.6 mph 7 mph 51.1% 0.00 in 53 W/m2
17:09 79.8 °F 60.3 °F 29.95 in WNW 0.4 mph 7 mph 51.4% 0.00 in 49 W/m2
17:14 79.7 °F 59.9 °F 29.95 in WNW 0.4 mph 7 mph 50.9% 0.00 in 47 W/m2
17:19 79.6 °F 60.4 °F 29.96 in WSW 0.5 mph 7 mph 52% 0.00 in 63 W/m2
17:24 79.4 °F 60.4 °F 29.95 in Calm   7 mph 52.3% 0.00 in 62 W/m2
17:29 79.3 °F 60.8 °F 29.95 in West 0.1 mph 7 mph 53.2% 0.00 in 67 W/m2
17:34 79.1 °F 60.6 °F 29.95 in Calm   7 mph 53.1% 0.00 in 62 W/m2
17:39 79 °F 60.3 °F 29.96 in Calm     52.8% 0.00 in 70 W/m2
17:44 79 °F 60.5 °F 29.96 in West 0.1 mph 3 mph 53.2% 0.00 in 70 W/m2
17:49 78.9 °F 60.5 °F 29.96 in NW 0.5 mph 3 mph 53.4% 0.00 in 60 W/m2
17:54 78.9 °F 59.8 °F 29.96 in NW 0.4 mph 5 mph 52.1% 0.00 in 60 W/m2
17:59 78.9 °F 59.9 °F 29.96 in NW 0.3 mph 5 mph 52.2% 0.00 in 58 W/m2
18:04 78.9 °F 59.5 °F 29.96 in NW 1.2 mph 6 mph 51.6% 0.00 in 30 W/m2
18:09 78.7 °F 59.7 °F 29.96 in Calm   6 mph 52.2% 0.00 in 23 W/m2
18:14 78.6 °F 60 °F 29.96 in NW 0.2 mph 6 mph 52.8% 0.00 in 21 W/m2
18:19 78.4 °F 59.4 °F 29.96 in NW 0.1 mph 6 mph 52% 0.00 in 19 W/m2
18:24 78.3 °F 59.7 °F 29.97 in Calm   6 mph 52.9% 0.00 in 16 W/m2
18:29 78.1 °F 59.8 °F 29.97 in NW 0.1 mph 6 mph 53.3% 0.00 in 14 W/m2
18:34 77.9 °F 59.4 °F 29.97 in NW 0.7 mph 6 mph 53% 0.00 in 11 W/m2
18:39 77.6 °F 59.6 °F 29.97 in Calm   3 mph 54% 0.00 in 9 W/m2
18:44 77.3 °F 59.7 °F 29.97 in Calm   3 mph 54.6% 0.00 in 7 W/m2
18:49 77.1 °F 60.1 °F 29.98 in Calm   3 mph 55.7% 0.00 in 5 W/m2
18:54 76.9 °F 60.4 °F 29.98 in Calm   3 mph 56.7% 0.00 in 0 W/m2
18:59 76.7 °F 60.3 °F 29.98 in Calm   3 mph 57% 0.00 in 0 W/m2
19:04 76.5 °F 60.4 °F 29.98 in Calm   3 mph 57.7% 0.00 in 0 W/m2
19:09 76.2 °F 60.7 °F 29.98 in Calm     58.7% 0.00 in 0 W/m2
19:14 75.9 °F 61 °F 29.98 in Calm     59.8% 0.00 in 0 W/m2
19:19 75.5 °F 60.9 °F 29.98 in Calm   1 mph 60.4% 0.00 in 0 W/m2
19:24 75.2 °F 60.9 °F 29.98 in Calm   1 mph 61.2% 0.00 in 0 W/m2
19:29 74.9 °F 60.9 °F 29.98 in Calm   1 mph 61.9% 0.00 in 0 W/m2
19:34 74.6 °F 60.7 °F 29.99 in Calm   1 mph 62% 0.00 in 0 W/m2
19:39 74.3 °F 60.7 °F 29.99 in Calm     62.6% 0.00 in 0 W/m2
19:44 74 °F 61 °F 29.99 in Calm     63.8% 0.00 in 0 W/m2
19:49 73.7 °F 60.8 °F 29.99 in Calm     64% 0.00 in 0 W/m2
19:54 73.4 °F 60.5 °F 29.99 in Calm     64% 0.00 in 0 W/m2
19:59 73.1 °F 60.6 °F 29.99 in Calm     64.9% 0.00 in 0 W/m2
20:00 73 °F 60.6 °F 29.99 in Calm     65% 0.00 in 0 W/m2
20:09 72.6 °F 60.6 °F 30.00 in Calm     66% 0.00 in 0 W/m2
20:14 72.4 °F 60.7 °F 30.00 in Calm     66.6% 0.00 in 0 W/m2
20:19 72.1 °F 60.9 °F 30.00 in Calm     67.9% 0.00 in 0 W/m2
20:24 71.9 °F 61.1 °F 30.00 in Calm     69% 0.00 in 0 W/m2
20:29 71.6 °F 61.2 °F 30.01 in Calm     69.9% 0.00 in 0 W/m2
20:34 71.3 °F 61.3 °F 30.01 in Calm     70.7% 0.00 in 0 W/m2
20:39 70.9 °F 61.3 °F 30.01 in Calm     71.5% 0.00 in 0 W/m2
20:44 70.5 °F 61.4 °F 30.01 in Calm     72.8% 0.00 in 0 W/m2
20:49 70.1 °F 61.1 °F 30.01 in Calm     73.1% 0.00 in 0 W/m2
20:54 69.7 °F 61.1 °F 30.01 in Calm     74% 0.00 in 0 W/m2
20:59 69.5 °F 60.8 °F 30.01 in Calm     74% 0.00 in 0 W/m2
21:04 69.2 °F 60.5 °F 30.01 in Calm     73.8% 0.00 in 0 W/m2
21:09 69 °F 60.4 °F 30.01 in Calm     74% 0.00 in 0 W/m2
21:14 68.9 °F 60.6 °F 30.02 in Calm     74.8% 0.00 in 0 W/m2
21:19 68.7 °F 60.9 °F 30.02 in Calm     76.1% 0.00 in 0 W/m2
21:24 68.5 °F 61.1 °F 30.02 in Calm     77.3% 0.00 in 0 W/m2
21:29 68.2 °F 60.8 °F 30.02 in Calm     77.2% 0.00 in 0 W/m2
21:34 67.9 °F 60.4 °F 30.02 in Calm     77% 0.00 in 0 W/m2
21:39 67.6 °F 60.2 °F 30.02 in Calm     77% 0.00 in 0 W/m2
21:44 67.5 °F 60 °F 30.02 in Calm     77% 0.00 in 0 W/m2
21:49 67.4 °F 59.9 °F 30.02 in Calm     77% 0.00 in 0 W/m2
21:54 67.3 °F 59.8 °F 30.03 in Calm     77% 0.00 in 0 W/m2
21:59 67.2 °F 59.9 °F 30.03 in Calm     77.5% 0.00 in 0 W/m2
22:04 67.1 °F 60 °F 30.03 in Calm     78% 0.00 in 0 W/m2
22:09 67 °F 59.9 °F 30.03 in Calm     78% 0.00 in 0 W/m2
22:14 66.8 °F 59.7 °F 30.03 in Calm     78% 0.00 in 0 W/m2
22:19 66.7 °F 59.6 °F 30.03 in NW 0.1 mph 2 mph 78% 0.00 in 0 W/m2
22:24 66.6 °F 59.9 °F 30.03 in Calm   2 mph 79% 0.00 in 0 W/m2
22:29 66.5 °F 59.8 °F 30.03 in Calm   2 mph 79% 0.00 in 0 W/m2
22:34 66.5 °F 59.8 °F 30.03 in Calm   2 mph 79% 0.00 in 0 W/m2
22:39 66.4 °F 59.9 °F 30.02 in Calm     79.4% 0.00 in 0 W/m2
22:44 66.4 °F 60.1 °F 30.01 in Calm   2 mph 80% 0.00 in 0 W/m2
22:49 66.4 °F 60 °F 29.99 in Calm   2 mph 79.9% 0.00 in 0 W/m2
22:54 66.4 °F 59.7 °F 29.97 in NNW 0.5 mph 3 mph 79% 0.00 in 0 W/m2
22:59 66.5 °F 59.2 °F 29.96 in NE 0.2 mph 4 mph 77.5% 0.00 in 0 W/m2
23:04 66.6 °F 59.2 °F 29.97 in Calm   4 mph 77% 0.00 in 0 W/m2
23:09 66.8 °F 59.7 °F 29.98 in Calm   1 mph 78.1% 0.00 in 0 W/m2
23:14 66.8 °F 60.1 °F 29.98 in Calm   1 mph 79% 0.00 in 0 W/m2
23:19 66.8 °F 60.1 °F 29.99 in Calm   1 mph 79% 0.00 in 0 W/m2
23:24 66.8 °F 60.1 °F 29.99 in Calm   1 mph 79% 0.00 in 0 W/m2
23:29 66.8 °F 60.4 °F 29.99 in Calm   1 mph 79.9% 0.00 in 0 W/m2
23:34 66.8 °F 60.3 °F 29.99 in Calm   1 mph 79.5% 0.00 in 0 W/m2
23:39 66.7 °F 59.9 °F 29.99 in Calm     78.8% 0.00 in 0 W/m2
23:44 66.7 °F 60 °F 29.98 in Calm     79% 0.00 in 0 W/m2
23:49 66.6 °F 59.9 °F 29.99 in Calm     79% 0.00 in 0 W/m2
23:54 66.6 °F 59.9 °F 29.99 in Calm     79% 0.00 in 0 W/m2
23:59 66.6 °F 59.9 °F 29.98 in Calm     79% 0.00 in 0 W/m2
Hartford County Weather
Compliments of Weather Underground - 2 mb